Time;durP1;ratioP1;P1;durP2;ratioP2;P2;SDS_P1;SDS_P2;PMS_P1;PMS_P2;Temp;Humidity;BMP_temperature;BMP_pressure;BME280_temperature;BME280_humidity;BME280_pressure;Samples;Min_cycle;Max_cycle;Signal;HPM_P1;HPM_P2
2022/01/14 00:01:14;;;;;;;18.17;10.40;;;;;;;7.02;50.90;103395.47;5076115;28;20044;-74
2022/01/14 00:03:42;;;;;;;18.15;10.43;;;;;;;7.01;50.92;103390.06;5088086;28;20076;-74
2022/01/14 00:06:09;;;;;;;17.98;10.15;;;;;;;6.97;50.62;103385.63;5045456;28;20117;-74
2022/01/14 00:08:36;;;;;;;20.90;11.52;;;;;;;6.94;51.00;103382.97;5073674;28;20044;-75
2022/01/14 00:11:04;;;;;;;18.80;10.90;;;;;;;6.90;50.96;103384.81;5087685;28;20091;-74
2022/01/14 00:16:12;;;;;;;23.50;11.77;;;;;;;6.84;51.31;103371.34;5084469;28;20056;-74
2022/01/14 00:18:39;;;;;;;25.50;12.57;;;;;;;6.83;51.24;103375.91;5088205;28;20044;-74
2022/01/14 00:21:06;;;;;;;20.17;11.05;;;;;;;6.81;51.03;103368.72;5087538;28;20083;-74
2022/01/14 00:23:37;;;;;;;21.75;12.45;;;;;;;6.79;51.28;103357.94;5085863;28;20056;-74
2022/01/14 00:31:43;;;;;;;24.65;13.20;;;;;;;6.74;51.31;103372.41;5091464;28;20094;-75
2022/01/14 00:34:11;;;;;;;24.40;13.30;;;;;;;6.73;51.60;103358.00;5092019;28;20052;-74
2022/01/14 00:36:39;;;;;;;24.10;13.75;;;;;;;6.73;51.41;103367.91;5090189;28;20059;-74
2022/01/14 00:39:08;;;;;;;21.92;12.98;;;;;;;6.73;51.58;103371.50;5092297;28;20130;-74
2022/01/14 00:41:35;;;;;;;24.58;14.52;;;;;;;6.72;51.42;103376.91;5090648;28;20055;-74
2022/01/14 00:44:07;;;;;;;25.00;14.27;;;;;;;6.73;51.87;103382.31;5067047;28;20076;-74
2022/01/14 00:46:34;;;;;;;24.77;14.63;;;;;;;6.71;51.55;103369.72;5085409;28;20151;-74
2022/01/14 00:49:01;;;;;;;23.73;13.65;;;;;;;6.72;51.34;103366.13;5083741;28;20044;-74
2022/01/14 00:51:28;;;;;;;26.70;14.05;;;;;;;6.72;51.67;103361.63;5090979;28;20055;-74
2022/01/14 00:53:54;;;;;;;25.65;14.35;;;;;;;6.72;51.54;103369.72;5090295;28;20052;-74
2022/01/14 00:56:30;;;;;;;24.70;14.07;;;;;;;6.73;51.88;103376.00;5072879;28;20056;-74
2022/01/14 00:59:16;;;;;;;27.25;15.50;;;;;;;6.72;51.82;103375.09;5073838;28;20078;-74
2022/01/14 01:01:52;;;;;;;24.35;14.05;;;;;;;6.74;51.89;103381.41;5066349;28;20064;-74
2022/01/14 01:04:22;;;;;;;25.73;14.63;;;;;;;6.72;51.71;103376.91;5091516;28;20052;-74
2022/01/14 01:06:49;;;;;;;26.67;15.07;;;;;;;6.71;51.66;103380.53;5072183;28;20139;-74
2022/01/14 01:09:16;;;;;;;24.50;14.05;;;;;;;6.70;51.68;103374.22;5090967;28;20067;-74
2022/01/14 01:12:05;;;;;;;25.45;14.82;;;;;;;6.72;51.74;103372.41;5088878;28;20048;-74
2022/01/14 01:15:20;;;;;;;25.35;14.77;;;;;;;6.69;51.72;103375.13;5073511;28;20047;-74
2022/01/14 01:17:21;;;;;;;25.20;14.55;;;;;;;6.67;51.63;103376.09;5075240;28;20078;-74
2022/01/14 01:19:47;;;;;;;24.45;14.77;;;;;;;6.66;51.61;103366.19;5088015;28;20459;-74
2022/01/14 01:22:14;;;;;;;28.15;14.45;;;;;;;6.66;51.64;103366.19;5090169;28;20109;-74
2022/01/14 01:24:41;;;;;;;24.48;14.13;;;;;;;6.64;51.95;103362.59;5090783;28;20102;-74
2022/01/14 01:27:09;;;;;;;27.85;15.23;;;;;;;6.63;51.40;103366.22;5089214;28;20095;-74
2022/01/14 01:32:06;;;;;;;25.65;14.88;;;;;;;6.63;51.04;103368.91;5089896;28;20094;-74
2022/01/14 01:34:33;;;;;;;24.98;15.05;;;;;;;6.62;51.80;103365.31;5089304;28;20079;-74
2022/01/14 01:37:01;;;;;;;25.50;14.32;;;;;;;6.62;51.42;103359.00;5080838;28;20091;-74
2022/01/14 01:39:33;;;;;;;24.17;13.98;;;;;;;6.62;51.66;103359.00;5088682;28;20044;-74
2022/01/14 01:42:06;;;;;;;24.30;13.68;;;;;;;6.60;51.33;103360.81;5076637;28;20047;-74
2022/01/14 01:44:35;;;;;;;27.15;14.40;;;;;;;6.57;51.61;103366.28;5086012;28;20097;-74
2022/01/14 01:47:02;;;;;;;23.80;14.15;;;;;;;6.57;51.47;103366.28;5089117;28;20102;-74
2022/01/14 01:49:32;;;;;;;25.02;14.30;;;;;;;6.56;51.44;103359.09;5090296;28;20123;-74
2022/01/14 01:52:00;;;;;;;22.00;13.35;;;;;;;6.53;51.43;103353.72;5090059;28;20514;-74
2022/01/14 01:54:28;;;;;;;25.02;13.48;;;;;;;6.52;51.55;103354.63;5090659;28;20388;-74
2022/01/14 01:56:56;;;;;;;24.85;13.55;;;;;;;6.51;51.54;103355.56;5070373;28;20117;-74
2022/01/14 01:59:24;;;;;;;25.27;13.70;;;;;;;6.49;51.87;103342.06;5095552;28;20493;-74
2022/01/14 02:01:51;;;;;;;22.70;12.80;;;;;;;6.48;51.68;103349.28;5093450;28;20083;-74
2022/01/14 02:04:19;;;;;;;27.05;13.88;;;;;;;6.47;51.89;103347.47;5089333;28;20048;-74
2022/01/14 02:06:46;;;;;;;23.30;13.88;;;;;;;6.48;51.74;103337.59;5070502;28;20400;-74
2022/01/14 02:09:14;;;;;;;23.88;12.85;;;;;;;6.48;51.47;103334.88;5088812;28;20052;-74
2022/01/14 02:11:41;;;;;;;21.58;12.55;;;;;;;6.47;51.87;103325.88;5088699;28;20052;-74
2022/01/14 02:14:24;;;;;;;24.55;12.98;;;;;;;6.47;51.42;103325.88;5089077;28;20109;-75
2022/01/14 02:22:55;;;;;;;20.88;11.27;;;;;;;6.47;51.63;103336.69;5080363;28;20112;-74
2022/01/14 02:25:30;;;;;;;22.50;12.18;;;;;;;6.48;51.61;103334.88;5080184;28;20139;-73
2022/01/14 02:28:05;;;;;;;20.75;11.93;;;;;;;6.48;51.63;103326.78;5079047;28;20051;-73
2022/01/14 02:30:39;;;;;;;21.85;12.32;;;;;;;6.46;51.48;103323.19;5084297;28;20048;-73
2022/01/14 02:33:11;;;;;;;20.15;11.63;;;;;;;6.47;51.58;103323.19;5089092;28;20097;-73
2022/01/14 02:35:39;;;;;;;20.70;12.40;;;;;;;6.46;51.47;103323.19;5085530;28;20545;-73
2022/01/14 02:38:08;;;;;;;20.55;12.23;;;;;;;6.46;51.62;103323.19;5072020;28;20044;-73
2022/01/14 02:40:36;;;;;;;19.25;11.77;;;;;;;6.46;51.61;103326.78;5085734;28;20060;-73
2022/01/14 02:43:05;;;;;;;21.35;11.82;;;;;;;6.46;51.69;103325.91;5089020;28;20052;-73
2022/01/14 02:45:34;;;;;;;20.55;11.20;;;;;;;6.45;51.23;103330.41;5087626;28;20098;-73
2022/01/14 02:48:04;;;;;;;20.90;11.43;;;;;;;6.47;51.84;103330.38;5088777;28;20075;-73
2022/01/14 02:50:38;;;;;;;20.90;12.05;;;;;;;6.46;51.46;103331.28;5088078;28;20082;-73
2022/01/14 02:56:00;;;;;;;20.15;11.75;;;;;;;6.43;51.50;103320.53;5087562;28;20056;-73
2022/01/14 02:58:29;;;;;;;22.58;11.93;;;;;;;6.41;51.66;103319.66;5087314;28;20049;-73
2022/01/14 03:01:00;;;;;;;19.55;11.00;;;;;;;6.41;51.58;103314.28;5093131;28;20130;-73
2022/01/14 03:03:30;;;;;;;20.05;11.48;;;;;;;6.39;51.71;103308.88;5092562;28;20056;-73
2022/01/14 03:05:57;;;;;;;20.40;11.05;;;;;;;6.38;51.51;103308.91;5085418;28;20135;-73
2022/01/14 03:08:23;;;;;;;24.67;13.27;;;;;;;6.37;51.40;103310.69;5089514;28;20048;-73
2022/01/14 03:10:57;;;;;;;21.98;12.20;;;;;;;6.38;51.53;103315.19;5087997;28;20052;-73
2022/01/14 03:13:24;;;;;;;21.83;11.60;;;;;;;6.34;51.19;103309.84;5085517;28;20273;-73
2022/01/14 03:15:51;;;;;;;21.75;11.90;;;;;;;6.34;51.46;103317.94;5084946;28;20079;-73
2022/01/14 03:18:23;;;;;;;20.00;11.05;;;;;;;6.32;51.39;103306.28;5088911;28;20087;-73
2022/01/14 03:21:03;;;;;;;19.30;11.13;;;;;;;6.29;51.61;103303.59;5087801;28;20066;-73
2022/01/14 03:23:30;;;;;;;20.17;11.50;;;;;;;6.29;51.45;103295.50;5086040;28;20131;-73
2022/01/14 03:25:59;;;;;;;19.85;10.88;;;;;;;6.28;51.30;103293.69;5083720;28;20494;-73
2022/01/14 03:28:25;;;;;;;20.92;11.43;;;;;;;6.28;51.62;103283.81;5093202;28;20062;-73
2022/01/14 03:30:53;;;;;;;19.58;10.93;;;;;;;6.28;51.58;103281.09;5084515;28;20159;-73
2022/01/14 03:33:21;;;;;;;21.25;11.00;;;;;;;6.28;51.61;103288.31;5076489;28;20097;-73
2022/01/14 03:35:48;;;;;;;21.17;10.98;;;;;;;6.28;51.47;103282.91;5086637;28;20082;-74
2022/01/14 03:38:15;;;;;;;19.48;10.38;;;;;;;6.26;51.60;103287.44;5071146;28;20117;-73
2022/01/14 03:40:41;;;;;;;20.50;10.93;;;;;;;6.24;51.69;103276.69;5088130;28;20574;-73
2022/01/14 03:43:08;;;;;;;20.00;11.02;;;;;;;6.25;51.54;103275.75;5076347;28;20569;-73
2022/01/14 03:45:35;;;;;;;20.00;10.25;;;;;;;6.23;51.60;103272.19;5086648;28;20139;-73
2022/01/14 03:48:01;;;;;;;19.63;10.98;;;;;;;6.23;51.54;103268.59;5089156;28;20471;-73
2022/01/14 03:50:28;;;;;;;18.35;10.15;;;;;;;6.23;51.68;103258.69;5087201;28;20129;-73
2022/01/14 03:52:55;;;;;;;18.75;10.38;;;;;;;6.23;51.66;103257.81;5083670;28;20045;-73
2022/01/14 03:55:21;;;;;;;19.33;10.50;;;;;;;6.22;51.54;103254.22;5068448;28;20163;-73
2022/01/14 03:57:49;;;;;;;19.65;10.45;;;;;;;6.21;51.29;103252.41;5088436;28;20156;-73
2022/01/14 04:00:17;;;;;;;20.60;11.82;;;;;;;6.23;51.43;103247.00;5087348;28;20105;-73
2022/01/14 04:02:45;;;;;;;21.27;11.25;;;;;;;6.22;51.36;103259.59;5073046;28;20463;-73
2022/01/14 04:05:13;;;;;;;18.83;11.10;;;;;;;6.18;51.24;103252.44;5090608;28;20054;-73
2022/01/14 04:07:41;;;;;;;19.90;11.13;;;;;;;6.17;51.05;103241.69;5071360;28;20150;-73
2022/01/14 04:10:11;;;;;;;20.90;11.20;;;;;;;6.15;51.32;103246.19;5075820;28;20130;-74
2022/01/14 04:18:00;;;;;;;18.35;10.35;;;;;;;6.10;51.53;103243.53;5087916;28;20157;-73
2022/01/14 04:20:28;;;;;;;20.55;10.63;;;;;;;6.09;51.45;103237.25;5091282;28;20048;-73
2022/01/14 04:22:55;;;;;;;18.85;11.25;;;;;;;6.08;51.46;103237.28;5092050;28;20447;-73
2022/01/14 04:25:22;;;;;;;19.25;10.75;;;;;;;6.09;51.50;103234.53;5090744;28;20348;-73
2022/01/14 04:27:49;;;;;;;20.23;10.68;;;;;;;6.09;51.60;103234.53;5090335;28;20090;-73
2022/01/14 04:30:16;;;;;;;19.58;10.43;;;;;;;6.07;51.49;103235.50;5073076;28;20180;-73
2022/01/14 04:32:43;;;;;;;18.95;10.80;;;;;;;6.06;51.75;103229.19;5091099;28;20047;-73
2022/01/14 04:35:10;;;;;;;19.92;10.85;;;;;;;6.07;51.40;103231.00;5090164;28;20533;-73
2022/01/14 04:37:36;;;;;;;19.58;9.95;;;;;;;6.07;51.63;103232.78;5091528;28;20090;-73
2022/01/14 04:40:05;;;;;;;17.80;9.95;;;;;;;6.07;51.44;103227.41;5090811;28;20135;-73
2022/01/14 04:42:32;;;;;;;20.85;10.15;;;;;;;6.07;51.64;103232.78;5090779;28;20125;-73
2022/01/14 04:44:59;;;;;;;20.23;11.30;;;;;;;6.05;51.34;103227.41;5090447;28;20065;-73
2022/01/14 04:47:32;;;;;;;18.73;10.85;;;;;;;6.07;51.57;103238.19;5090812;28;20468;-73
2022/01/14 04:50:00;;;;;;;17.42;9.77;;;;;;;6.06;51.51;103236.41;5090491;28;20131;-73
2022/01/14 04:52:29;;;;;;;19.42;10.77;;;;;;;6.07;51.59;103232.78;5091982;28;20130;-73
2022/01/14 04:54:56;;;;;;;19.13;10.57;;;;;;;6.06;51.36;103234.59;5070881;28;20072;-74
2022/01/14 04:57:22;;;;;;;19.40;10.63;;;;;;;6.05;51.52;103230.09;5087671;28;20055;-74
2022/01/14 04:59:50;;;;;;;20.55;10.48;;;;;;;6.06;51.12;103240.00;5091350;28;20130;-74
2022/01/14 05:02:17;;;;;;;18.13;10.27;;;;;;;6.06;51.37;103231.00;5090786;28;20067;-74
2022/01/14 05:04:45;;;;;;;20.13;10.70;;;;;;;6.05;51.38;103231.91;5086118;28;20051;-74
2022/01/14 05:07:22;;;;;;;20.95;11.38;;;;;;;6.04;51.29;103230.13;5071153;28;20135;-74
2022/01/14 05:10:06;;;;;;;20.75;9.90;;;;;;;6.02;51.23;103230.13;5093818;28;20144;-74
2022/01/14 05:12:35;;;;;;;19.38;10.70;;;;;;;6.01;51.16;103220.25;5081867;28;20531;-73
2022/01/14 05:15:25;;;;;;;21.10;10.32;;;;;;;6.01;51.15;103222.09;5088411;28;20123;-74
2022/01/14 05:17:52;;;;;;;19.48;10.73;;;;;;;5.97;51.50;103212.22;5085301;28;20130;-74
2022/01/14 05:20:19;;;;;;;23.40;10.95;;;;;;;5.98;51.36;103222.09;5072378;28;20055;-74
2022/01/14 05:22:46;;;;;;;22.33;11.27;;;;;;;5.97;51.50;103220.31;5091346;28;20139;-73
2022/01/14 05:25:14;;;;;;;19.23;10.52;;;;;;;5.94;51.17;103218.53;5088980;28;20079;-73
2022/01/14 05:27:42;;;;;;;18.80;10.35;;;;;;;5.93;51.44;103222.13;5072316;28;20345;-74
2022/01/14 05:30:10;;;;;;;17.90;10.15;;;;;;;5.91;51.42;103234.75;5072099;28;20075;-74
2022/01/14 05:32:46;;;;;;;18.90;10.07;;;;;;;5.91;51.26;103236.56;5062848;28;20083;-73
2022/01/14 05:35:18;;;;;;;18.98;9.65;;;;;;;5.89;51.39;103231.16;5068549;28;20067;-74
2022/01/14 05:37:45;;;;;;;18.23;10.40;;;;;;;5.85;51.44;103237.44;5090135;28;20079;-73
2022/01/14 05:40:13;;;;;;;19.05;10.70;;;;;;;5.87;51.67;103234.75;5089652;28;20135;-74
2022/01/14 05:42:40;;;;;;;18.95;11.10;;;;;;;5.85;51.31;103226.66;5090223;28;20150;-73
2022/01/14 05:45:09;;;;;;;16.90;9.82;;;;;;;5.86;51.38;103231.16;5075070;28;20056;-74
2022/01/14 05:47:36;;;;;;;17.02;9.88;;;;;;;5.84;51.59;103233.00;5091382;28;20470;-73
2022/01/14 05:50:04;;;;;;;21.10;11.00;;;;;;;5.87;51.42;103234.75;5090069;28;20177;-74
2022/01/14 05:52:31;;;;;;;20.75;10.00;;;;;;;5.85;51.37;103233.88;5090494;28;20052;-74
2022/01/14 05:54:58;;;;;;;19.55;10.68;;;;;;;5.84;51.28;103226.69;5062735;28;20101;-74
2022/01/14 05:57:24;;;;;;;20.67;10.38;;;;;;;5.84;51.44;103232.09;5088907;28;20080;-73
2022/01/14 05:59:51;;;;;;;17.80;10.43;;;;;;;5.83;51.67;103222.22;5084487;28;20087;-74
2022/01/14 06:02:17;;;;;;;18.30;10.20;;;;;;;5.81;51.52;103235.69;5076272;28;20075;-74
2022/01/14 06:04:45;;;;;;;19.73;9.95;;;;;;;5.80;51.25;103223.13;5072354;28;20135;-73
2022/01/14 06:07:11;;;;;;;18.90;10.45;;;;;;;5.80;51.48;103233.91;5098529;28;20559;-74
2022/01/14 06:09:38;;;;;;;20.58;10.50;;;;;;;5.80;51.77;103233.91;5090344;28;20159;-73
2022/01/14 06:12:05;;;;;;;18.13;10.27;;;;;;;5.79;51.64;103229.44;5088841;28;20056;-73
2022/01/14 06:14:32;;;;;;;19.23;10.60;;;;;;;5.80;51.63;103219.53;5090181;28;20079;-73
2022/01/14 06:16:59;;;;;;;16.77;9.63;;;;;;;5.79;51.70;103220.44;5081124;28;20135;-73
2022/01/14 06:19:27;;;;;;;17.60;9.60;;;;;;;5.79;51.73;103213.25;5086509;28;20040;-73
2022/01/14 06:21:54;;;;;;;17.25;10.27;;;;;;;5.79;51.81;103215.94;5088675;28;20710;-73
2022/01/14 06:24:20;;;;;;;17.65;10.15;;;;;;;5.80;51.75;103222.22;5083954;28;20059;-73
2022/01/14 06:26:47;;;;;;;20.05;9.68;;;;;;;5.80;51.86;103225.81;5079248;28;20055;-73
2022/01/14 06:29:18;;;;;;;18.20;10.02;;;;;;;5.80;51.67;103233.91;5080641;28;20105;-73
2022/01/14 06:31:44;;;;;;;18.05;9.52;;;;;;;5.80;51.66;103230.31;5080298;28;20591;-73
2022/01/14 06:34:14;;;;;;;18.25;9.73;;;;;;;5.81;51.40;103222.22;5087706;28;20043;-73
2022/01/14 06:36:44;;;;;;;17.67;10.13;;;;;;;5.83;51.71;103236.59;5066293;28;20237;-73
2022/01/14 06:39:11;;;;;;;19.15;10.82;;;;;;;5.80;51.57;103230.31;5084934;28;20083;-73
2022/01/14 06:41:37;;;;;;;21.08;10.75;;;;;;;5.80;51.63;103233.00;5087100;28;20052;-73
2022/01/14 06:44:07;;;;;;;18.92;10.07;;;;;;;5.80;51.69;103231.22;5085905;28;20447;-73
2022/01/14 06:46:34;;;;;;;18.55;10.52;;;;;;;5.79;51.56;103224.03;5082288;28;20059;-72
2022/01/14 06:49:00;;;;;;;18.75;10.55;;;;;;;5.80;51.58;103227.63;5075115;28;20155;-73
2022/01/14 06:51:27;;;;;;;16.92;9.98;;;;;;;5.79;51.71;103221.34;5068559;28;20142;-73
2022/01/14 06:53:54;;;;;;;18.08;9.98;;;;;;;5.79;51.47;103217.75;5081007;28;20054;-73
2022/01/14 06:56:20;;;;;;;18.55;10.02;;;;;;;5.79;51.73;103223.13;5082455;28;20518;-73
2022/01/14 06:58:47;;;;;;;19.45;10.40;;;;;;;5.78;51.52;103219.53;5068557;28;20089;-73
2022/01/14 07:01:14;;;;;;;19.30;9.70;;;;;;;5.80;51.61;103215.03;5075818;28;20109;-73
2022/01/14 07:03:40;;;;;;;18.38;9.73;;;;;;;5.80;51.89;103206.06;5089240;28;20058;-73
2022/01/14 07:06:07;;;;;;;19.50;9.98;;;;;;;5.81;51.77;103199.75;5080520;28;20080;-74
2022/01/14 07:08:34;;;;;;;14.25;8.90;;;;;;;5.81;51.87;103200.66;5081187;28;20048;-73
2022/01/14 07:11:00;;;;;;;19.20;10.40;;;;;;;5.82;51.84;103196.16;5077128;28;20083;-73
2022/01/14 07:13:27;;;;;;;17.98;8.88;;;;;;;5.84;52.13;103195.25;5084430;28;20509;-73
2022/01/14 07:15:54;;;;;;;17.17;9.25;;;;;;;5.84;51.95;103197.06;5066671;28;20298;-73
2022/01/14 07:18:22;;;;;;;17.17;10.13;;;;;;;5.85;51.89;103197.00;5066224;28;20461;-73
2022/01/14 07:20:49;;;;;;;19.85;10.15;;;;;;;5.85;51.98;103193.44;5087918;28;20048;-73
2022/01/14 07:23:16;;;;;;;19.13;10.07;;;;;;;5.86;51.91;103196.09;5086778;28;20130;-73
2022/01/14 07:25:43;;;;;;;19.83;10.30;;;;;;;5.87;51.92;103199.69;5087104;28;20056;-73
2022/01/14 07:28:10;;;;;;;21.17;11.13;;;;;;;5.88;51.91;103197.03;5079305;28;20048;-73
2022/01/14 07:30:36;;;;;;;20.88;11.63;;;;;;;5.88;52.09;103197.03;5082629;28;20135;-73
2022/01/14 07:33:18;;;;;;;20.33;11.30;;;;;;;5.92;52.11;103197.91;5083368;28;20124;-73
2022/01/14 07:35:45;;;;;;;19.75;10.95;;;;;;;5.89;51.97;103203.31;5084400;28;20056;-73
2022/01/14 07:38:11;;;;;;;20.23;11.07;;;;;;;5.91;52.09;103209.59;5074059;28;20126;-73
2022/01/14 07:40:39;;;;;;;21.55;11.38;;;;;;;5.92;52.19;103209.59;5095161;28;20071;-73
2022/01/14 07:43:07;;;;;;;24.13;12.25;;;;;;;5.94;52.33;103207.75;5094586;28;20044;-74
2022/01/14 07:45:33;;;;;;;21.08;11.23;;;;;;;5.93;52.16;103214.03;5092985;28;20134;-74
2022/01/14 07:48:00;;;;;;;20.08;11.80;;;;;;;5.95;52.37;103219.41;5099647;28;20086;-73
2022/01/14 07:50:28;;;;;;;23.75;11.43;;;;;;;5.96;52.16;103221.22;5104309;28;20060;-74
2022/01/14 07:52:54;;;;;;;20.25;11.38;;;;;;;5.96;52.24;103219.41;5095279;28;20114;-74
2022/01/14 07:55:21;;;;;;;20.13;11.60;;;;;;;5.97;52.37;103218.50;5082883;28;20047;-74
2022/01/14 07:57:48;;;;;;;24.63;12.10;;;;;;;5.98;52.41;103216.72;5092325;28;20449;-73
2022/01/14 08:00:16;;;;;;;20.17;11.63;;;;;;;5.99;52.29;103223.88;5093058;28;20449;-74
2022/01/14 08:02:43;;;;;;;20.00;11.10;;;;;;;6.00;52.50;103215.78;5094700;28;20457;-73
2022/01/14 08:05:10;;;;;;;20.08;10.30;;;;;;;6.01;52.70;103206.75;5074792;28;20112;-74
2022/01/14 08:07:44;;;;;;;20.98;10.27;;;;;;;6.03;52.66;103214.84;5095550;28;20491;-73
2022/01/14 08:10:12;;;;;;;18.52;9.77;;;;;;;6.05;52.72;103213.94;5093841;28;20476;-73
2022/01/14 08:12:41;;;;;;;18.42;9.13;;;;;;;6.07;52.69;103209.41;5074601;28;20304;-73
2022/01/14 08:15:11;;;;;;;20.35;10.57;;;;;;;6.09;52.92;103202.19;5091410;28;20052;-75
2022/01/14 08:17:38;;;;;;;18.38;9.57;;;;;;;6.10;52.76;103211.16;5094442;28;20091;-73
2022/01/14 08:20:06;;;;;;;19.73;9.75;;;;;;;6.12;52.75;103212.06;5086254;28;20186;-73
2022/01/14 08:22:34;;;;;;;18.63;10.52;;;;;;;6.14;52.68;103207.53;5101479;28;20086;-74
2022/01/14 08:25:01;;;;;;;19.10;10.55;;;;;;;6.16;52.68;103208.44;5073515;28;20054;-73
2022/01/14 08:27:27;;;;;;;22.08;11.07;;;;;;;6.18;52.34;103220.06;5094427;28;20079;-73
2022/01/14 08:29:55;;;;;;;18.48;9.85;;;;;;;6.19;52.51;103229.94;5093608;28;20052;-74
2022/01/14 08:32:22;;;;;;;20.85;10.90;;;;;;;6.20;52.46;103233.53;5095395;28;20047;-74
2022/01/14 08:34:50;;;;;;;18.15;9.93;;;;;;;6.21;52.64;103228.13;5088429;28;20049;-73
2022/01/14 08:37:16;;;;;;;19.35;10.32;;;;;;;6.20;52.86;103234.44;5088956;28;20079;-74
2022/01/14 08:39:43;;;;;;;17.60;10.73;;;;;;;6.21;52.76;103230.84;5094997;28;20083;-73
2022/01/14 08:42:12;;;;;;;16.40;9.27;;;;;;;6.22;52.85;103219.13;5075194;28;20097;-74
2022/01/14 08:44:38;;;;;;;17.83;9.98;;;;;;;6.21;52.63;103217.34;5077132;28;20138;-73
2022/01/14 08:47:10;;;;;;;18.50;10.85;;;;;;;6.22;52.64;103226.34;5093481;28;20075;-73
2022/01/14 08:49:41;;;;;;;16.00;9.52;;;;;;;6.23;53.11;103223.63;5089784;28;20056;-73
2022/01/14 08:52:10;;;;;;;16.85;9.77;;;;;;;6.23;53.17;103229.03;5089185;28;20138;-73
2022/01/14 08:54:37;;;;;;;15.43;9.35;;;;;;;6.22;52.77;103221.84;5072275;28;20060;-73
2022/01/14 08:57:07;;;;;;;18.40;9.75;;;;;;;6.23;52.87;103229.03;5069699;28;20055;-74
2022/01/14 08:59:34;;;;;;;16.40;10.02;;;;;;;6.24;52.81;103220.03;5096295;28;20070;-73
2022/01/14 09:02:01;;;;;;;17.75;10.20;;;;;;;6.25;53.08;103215.53;5088996;28;20156;-73
2022/01/14 09:04:28;;;;;;;18.05;10.13;;;;;;;6.26;52.98;103217.31;5094749;28;20130;-74
2022/01/14 09:06:54;;;;;;;19.65;10.80;;;;;;;6.27;53.24;103216.38;5065642;28;20299;-74
2022/01/14 09:09:22;;;;;;;19.45;10.20;;;;;;;6.29;53.38;103222.66;5087804;28;20356;-73
2022/01/14 09:11:49;;;;;;;18.67;9.70;;;;;;;6.29;53.09;103222.66;5095195;28;20249;-73
2022/01/14 09:14:16;;;;;;;17.08;10.13;;;;;;;6.31;53.39;103226.25;5085460;28;20130;-73
2022/01/14 09:16:42;;;;;;;18.23;10.90;;;;;;;6.32;53.13;103225.34;5070049;28;20144;-73
2022/01/14 09:19:09;;;;;;;19.95;11.05;;;;;;;6.33;53.50;103217.22;5067010;28;20115;-73
2022/01/14 09:21:36;;;;;;;16.85;10.13;;;;;;;6.34;53.50;103218.97;5088641;28;20165;-74
2022/01/14 09:24:03;;;;;;;18.35;10.98;;;;;;;6.35;53.35;103228.88;5075039;28;20044;-73
2022/01/14 09:26:33;;;;;;;21.70;12.07;;;;;;;6.37;53.73;103229.75;5089099;28;20067;-73
2022/01/14 09:29:02;;;;;;;21.92;11.77;;;;;;;6.38;53.50;103234.25;5073226;28;20101;-73
2022/01/14 09:31:29;;;;;;;19.40;11.35;;;;;;;6.38;53.45;103231.53;5089324;28;20060;-73
2022/01/14 09:33:56;;;;;;;19.30;11.23;;;;;;;6.38;53.74;103228.84;5073030;28;20054;-73
2022/01/14 09:36:24;;;;;;;20.52;10.93;;;;;;;6.39;53.68;103221.66;5081075;28;20051;-73
2022/01/14 09:38:51;;;;;;;19.60;11.05;;;;;;;6.39;53.49;103227.03;5095362;28;20721;-73
2022/01/14 09:41:18;;;;;;;23.25;11.60;;;;;;;6.39;53.50;103229.75;5064370;28;20048;-73
2022/01/14 09:43:45;;;;;;;15.68;10.18;;;;;;;6.40;53.51;103240.53;5089324;28;20123;-74
2022/01/14 09:46:12;;;;;;;20.67;11.65;;;;;;;6.42;54.14;103243.22;5071529;28;20170;-74
2022/01/14 09:48:40;;;;;;;21.13;11.43;;;;;;;6.45;54.06;103240.47;5092717;28;20052;-74
2022/01/14 09:51:07;;;;;;;19.15;10.45;;;;;;;6.45;53.71;103244.03;5071224;28;20131;-73
2022/01/14 09:53:34;;;;;;;18.48;10.65;;;;;;;6.47;53.89;103250.31;5099269;28;20082;-74
2022/01/14 09:56:02;;;;;;;21.25;11.10;;;;;;;6.51;54.06;103263.81;5088329;28;20139;-74
2022/01/14 09:58:35;;;;;;;20.05;10.57;;;;;;;6.52;53.95;103271.84;5088900;28;20048;-74
2022/01/14 10:01:10;;;;;;;20.65;11.20;;;;;;;6.57;54.59;103288.00;5081173;28;20050;-74
2022/01/14 10:03:52;;;;;;;18.70;10.55;;;;;;;6.58;54.33;103289.81;5092488;28;20486;-73
2022/01/14 10:06:47;;;;;;;21.38;11.27;;;;;;;6.57;54.54;103283.50;5088977;28;20567;-74
2022/01/14 10:09:23;;;;;;;17.65;9.98;;;;;;;6.59;54.33;103286.19;5088834;28;20079;-74
2022/01/14 10:11:59;;;;;;;23.50;12.27;;;;;;;6.62;54.77;103276.25;5063011;28;20528;-74
2022/01/14 10:14:26;;;;;;;23.45;13.25;;;;;;;6.60;54.04;103294.25;5088795;28;20048;-74
2022/01/14 10:16:57;;;;;;;23.83;13.32;;;;;;;6.64;54.31;103281.63;5082325;28;20082;-74
2022/01/14 10:19:40;;;;;;;26.95;13.25;;;;;;;6.62;54.27;103283.44;5089203;28;20135;-73
2022/01/14 10:22:21;;;;;;;26.83;12.77;;;;;;;6.60;54.69;103279.84;5081386;28;20044;-73
2022/01/14 10:24:55;;;;;;;25.85;13.07;;;;;;;6.61;54.49;103270.84;5082601;28;20091;-74
2022/01/14 10:27:38;;;;;;;26.02;13.43;;;;;;;6.60;54.74;103279.84;5089564;28;20082;-73
2022/01/14 10:30:16;;;;;;;;;;;;;;;6.36;55.28;103267.53;5089564;28;20048;-73
2022/01/14 10:32:45;;;;;;;25.15;12.70;;;;;;;6.52;54.23;103266.44;5089477;28;20038;-74
2022/01/14 10:35:15;;;;;;;24.63;12.48;;;;;;;6.54;54.30;103256.53;5088730;28;20156;-74
2022/01/14 10:37:42;;;;;;;23.38;12.50;;;;;;;6.54;54.34;103256.53;5072700;28;20047;-75
2022/01/14 10:40:21;;;;;;;26.05;13.07;;;;;;;6.58;54.67;103246.63;5089092;28;20054;-74
2022/01/14 10:42:50;;;;;;;26.85;13.25;;;;;;;6.56;54.16;103229.53;5088738;28;20052;-73
2022/01/14 10:45:40;;;;;;;34.60;14.27;;;;;;;6.57;54.27;103234.94;5087416;28;20079;-74
2022/01/14 10:48:16;;;;;;;28.00;13.98;;;;;;;6.60;54.83;103229.47;5090459;28;20047;-74
2022/01/14 10:50:52;;;;;;;27.85;13.18;;;;;;;6.58;54.77;103234.03;5089297;28;20055;-74
2022/01/14 10:53:24;;;;;;;31.25;14.23;;;;;;;6.60;54.59;103226.78;5090171;28;20294;-75
2022/01/14 10:56:00;;;;;;;23.50;11.30;;;;;;;6.61;54.80;103228.56;5087343;28;20460;-73
2022/01/14 10:58:31;;;;;;;28.85;13.80;;;;;;;6.61;54.64;103225.88;5079307;28;20101;-73
2022/01/14 11:01:15;;;;;;;24.85;12.02;;;;;;;6.62;55.12;103216.84;5091100;28;20097;-73
2022/01/14 11:03:44;;;;;;;28.98;13.80;;;;;;;6.62;54.73;103224.94;5069428;28;20074;-73
2022/01/14 11:06:39;;;;;;;27.55;13.45;;;;;;;6.63;55.14;103220.44;5088302;28;20368;-73
2022/01/14 11:09:08;;;;;;;30.20;13.40;;;;;;;6.62;54.94;103215.97;5077978;28;20048;-74
2022/01/14 11:11:46;;;;;;;29.38;12.90;;;;;;;6.63;54.65;103223.16;5084766;28;20048;-74
2022/01/14 11:14:16;;;;;;;28.23;13.35;;;;;;;6.62;54.48;103216.84;5071518;28;20048;-74
2022/01/14 11:16:43;;;;;;;30.58;14.15;;;;;;;6.62;54.73;103221.34;5086634;28;20067;-73
2022/01/14 11:19:13;;;;;;;30.73;14.68;;;;;;;6.64;54.61;103208.75;5089210;28;20050;-77
2022/01/14 11:24:30;;;;;;;25.55;12.18;;;;;;;6.64;54.79;103216.84;5084321;28;20759;-75
2022/01/14 11:27:03;;;;;;;29.77;12.95;;;;;;;6.68;54.82;103214.06;5087483;28;20071;-75
2022/01/14 11:29:35;;;;;;;29.63;14.35;;;;;;;6.69;55.19;103213.16;5076455;28;20044;-75
2022/01/14 11:32:05;;;;;;;24.25;11.45;;;;;;;6.68;54.83;103208.66;5066607;28;20086;-78
2022/01/14 11:34:34;;;;;;;28.38;12.98;;;;;;;6.69;54.80;103212.25;5070451;28;20054;-75
2022/01/14 11:37:03;;;;;;;29.17;12.38;;;;;;;6.70;55.22;103205.97;5086608;28;20479;-75
2022/01/14 11:39:36;;;;;;;35.80;14.18;;;;;;;6.72;55.21;103214.94;5068379;28;20411;-76
2022/01/14 11:42:14;;;;;;;33.17;13.43;;;;;;;6.71;55.40;103205.94;5085411;28;20415;-75
2022/01/14 11:44:46;;;;;;;35.03;15.15;;;;;;;6.73;55.19;103211.31;5071525;28;20048;-75
2022/01/14 11:47:29;;;;;;;28.85;13.18;;;;;;;6.72;55.75;103202.34;5089787;28;20062;-75
2022/01/14 11:49:58;;;;;;;34.85;13.65;;;;;;;6.70;55.25;103189.75;5084410;28;20126;-75
2022/01/14 11:52:37;;;;;;;27.20;12.27;;;;;;;6.74;55.64;103191.53;5088724;28;20048;-75
2022/01/14 11:55:25;;;;;;;33.35;13.95;;;;;;;6.74;55.09;103188.81;5077263;28;20051;-74
2022/01/14 11:57:56;;;;;;;29.55;12.77;;;;;;;6.73;55.12;103193.31;5074520;28;20052;-75